Aérodrome :
LOGIN :

S'inscrire | Disclaimer

   EN    FR    IT 

 










Légende :    VFR   VFR Marginal   IFR   IFR Intensif   IFR Très Intensif
Visi : 
Plafond : 
>= 8 km
>= 3000ft
5 à 8 km
1000 à 3000 ft
1500m à 5 km
500 à 1000 ft
800 à 1500m
200 à 500 ft
< 800m
< 200 ft
Symboles :   Orages  Brouillard  Fortes neiges  Fortes précipitations  Vent > 20 kt
SIGMETs :   Divers  Orages  Givrage  Turbulence  Onde Orograph.  Cendres Volcan.







- Altitude de l'aérodrome : 45 ft
- Code IATA : CEG
- Voir les cartes d'approche


EGNR - Hawarden Chester

DERNIER METAR :
  • 240950Z 24008KT 9999 FEW021 BKN037 17/11 Q1013

METARs EXPIRÉS :
  • 240920Z VRB01KT 9999 FEW021 BKN037 16/11 Q1013
  • 240850Z VRB02KT 9999 FEW022 BKN036 15/10 Q1013
  • 240820Z VRB02KT 9999 FEW021 BKN036 15/10 Q1013
  • 240750Z 29004KT 220V320 9999 FEW016 BKN036 15/10 Q1013
  • 240720Z 29004KT 230V330 9999 FEW016 BKN022 14/10 Q1013

TAF TAF EGNR
Valide du 24 à 09h jusqu'au 24 à 18h UTC


240755Z 2409/2418 24008KT 9999 BKN025
PROB30
TEMPO 2409/2418 8000 -RA
Pas de NOTAMs connus pour ce terrain.



MET'MAP, la Météo Aéronautique d'un coup d'oeil ! - Copyright ORBIFLY Décembre 2007 - Disclaimer

ORBIFLY MET'MAP TEAM :

Programmation & Développement : Alexandra Zaïnal
Conception & Développement : Baudouin d'Aumeries
Co-Programmation & Développement : Marc-Olivier Méhu
Soutien technique & logistique : Manuel Goepfert

Contact : metmap@orbifly.com




SOURCES & CREDITS :

   NOAA